sensor_id;sensor_type;location;lat;lon;timestamp;P1;durP1;ratioP1;P2;durP2;ratioP2
76023;SDS011;64719;52.124;6.226;2023-04-03T00:01:49;3.20;;;1.73;;
76023;SDS011;64719;52.124;6.226;2023-04-03T00:04:15;3.35;;;1.45;;
76023;SDS011;64719;52.124;6.226;2023-04-03T00:06:42;2.90;;;1.35;;
76023;SDS011;64719;52.124;6.226;2023-04-03T00:09:10;2.83;;;1.27;;
76023;SDS011;64719;52.124;6.226;2023-04-03T00:11:36;4.25;;;1.80;;
76023;SDS011;64719;52.124;6.226;2023-04-03T00:14:03;5.97;;;1.60;;
76023;SDS011;64719;52.124;6.226;2023-04-03T00:16:29;2.65;;;1.48;;
76023;SDS011;64719;52.124;6.226;2023-04-03T00:18:56;4.38;;;1.48;;
76023;SDS011;64719;52.124;6.226;2023-04-03T00:21:22;5.32;;;1.58;;
76023;SDS011;64719;52.124;6.226;2023-04-03T00:23:49;3.47;;;1.63;;
76023;SDS011;64719;52.124;6.226;2023-04-03T00:26:17;3.72;;;1.45;;
76023;SDS011;64719;52.124;6.226;2023-04-03T00:28:43;3.97;;;1.30;;
76023;SDS011;64719;52.124;6.226;2023-04-03T00:31:10;2.65;;;1.33;;
76023;SDS011;64719;52.124;6.226;2023-04-03T00:33:36;3.00;;;1.63;;
76023;SDS011;64719;52.124;6.226;2023-04-03T00:36:06;2.40;;;1.48;;
76023;SDS011;64719;52.124;6.226;2023-04-03T00:38:34;2.53;;;1.48;;
76023;SDS011;64719;52.124;6.226;2023-04-03T00:41:01;3.60;;;1.67;;
76023;SDS011;64719;52.124;6.226;2023-04-03T00:43:29;3.55;;;1.40;;
76023;SDS011;64719;52.124;6.226;2023-04-03T00:45:56;3.58;;;1.70;;
76023;SDS011;64719;52.124;6.226;2023-04-03T00:48:24;3.85;;;1.40;;
76023;SDS011;64719;52.124;6.226;2023-04-03T00:50:55;3.60;;;1.40;;
76023;SDS011;64719;52.124;6.226;2023-04-03T00:53:23;2.95;;;1.42;;
76023;SDS011;64719;52.124;6.226;2023-04-03T00:55:52;2.83;;;1.52;;
76023;SDS011;64719;52.124;6.226;2023-04-03T00:58:22;4.38;;;1.67;;
76023;SDS011;64719;52.124;6.226;2023-04-03T01:00:56;6.03;;;1.80;;
76023;SDS011;64719;52.124;6.226;2023-04-03T01:03:25;3.30;;;1.40;;
76023;SDS011;64719;52.124;6.226;2023-04-03T01:05:51;2.70;;;1.42;;
76023;SDS011;64719;52.124;6.226;2023-04-03T01:08:18;3.55;;;1.50;;
76023;SDS011;64719;52.124;6.226;2023-04-03T01:10:44;6.00;;;1.50;;
76023;SDS011;64719;52.124;6.226;2023-04-03T01:13:18;5.55;;;1.63;;
76023;SDS011;64719;52.124;6.226;2023-04-03T01:15:46;4.05;;;2.08;;
76023;SDS011;64719;52.124;6.226;2023-04-03T01:18:14;3.97;;;1.80;;
76023;SDS011;64719;52.124;6.226;2023-04-03T01:20:49;3.60;;;1.48;;
76023;SDS011;64719;52.124;6.226;2023-04-03T01:23:35;5.68;;;1.80;;
76023;SDS011;64719;52.124;6.226;2023-04-03T01:26:13;4.88;;;1.50;;
76023;SDS011;64719;52.124;6.226;2023-04-03T01:28:40;5.43;;;1.40;;
76023;SDS011;64719;52.124;6.226;2023-04-03T01:31:10;3.15;;;1.70;;
76023;SDS011;64719;52.124;6.226;2023-04-03T01:33:42;7.10;;;2.15;;
76023;SDS011;64719;52.124;6.226;2023-04-03T01:36:11;3.33;;;1.67;;
76023;SDS011;64719;52.124;6.226;2023-04-03T01:38:40;3.92;;;2.00;;
76023;SDS011;64719;52.124;6.226;2023-04-03T01:41:07;4.03;;;1.92;;
76023;SDS011;64719;52.124;6.226;2023-04-03T01:43:33;4.07;;;2.00;;
76023;SDS011;64719;52.124;6.226;2023-04-03T01:46:00;4.53;;;1.90;;
76023;SDS011;64719;52.124;6.226;2023-04-03T01:48:26;6.18;;;1.83;;
76023;SDS011;64719;52.124;6.226;2023-04-03T01:50:54;3.97;;;1.70;;
76023;SDS011;64719;52.124;6.226;2023-04-03T01:53:21;3.17;;;1.65;;
76023;SDS011;64719;52.124;6.226;2023-04-03T01:55:48;7.60;;;2.08;;
76023;SDS011;64719;52.124;6.226;2023-04-03T01:58:14;4.38;;;1.95;;
76023;SDS011;64719;52.124;6.226;2023-04-03T02:00:41;4.13;;;2.03;;
76023;SDS011;64719;52.124;6.226;2023-04-03T02:03:07;5.10;;;1.77;;
76023;SDS011;64719;52.124;6.226;2023-04-03T02:05:34;8.88;;;2.10;;
76023;SDS011;64719;52.124;6.226;2023-04-03T02:08:02;4.50;;;1.70;;
76023;SDS011;64719;52.124;6.226;2023-04-03T02:10:28;4.10;;;1.73;;
76023;SDS011;64719;52.124;6.226;2023-04-03T02:12:55;4.72;;;2.00;;
76023;SDS011;64719;52.124;6.226;2023-04-03T02:15:21;5.53;;;1.60;;
76023;SDS011;64719;52.124;6.226;2023-04-03T02:17:48;4.70;;;2.17;;
76023;SDS011;64719;52.124;6.226;2023-04-03T02:20:15;4.93;;;1.88;;
76023;SDS011;64719;52.124;6.226;2023-04-03T02:22:41;4.93;;;2.00;;
76023;SDS011;64719;52.124;6.226;2023-04-03T02:25:09;5.70;;;1.90;;
76023;SDS011;64719;52.124;6.226;2023-04-03T02:27:36;4.13;;;1.92;;
76023;SDS011;64719;52.124;6.226;2023-04-03T02:30:03;10.00;;;2.38;;
76023;SDS011;64719;52.124;6.226;2023-04-03T02:32:31;5.13;;;2.33;;
76023;SDS011;64719;52.124;6.226;2023-04-03T02:34:57;3.50;;;1.90;;
76023;SDS011;64719;52.124;6.226;2023-04-03T02:37:24;4.07;;;2.05;;
76023;SDS011;64719;52.124;6.226;2023-04-03T02:39:51;2.50;;;1.80;;
76023;SDS011;64719;52.124;6.226;2023-04-03T02:42:19;5.93;;;2.35;;
76023;SDS011;64719;52.124;6.226;2023-04-03T02:44:45;8.15;;;2.05;;
76023;SDS011;64719;52.124;6.226;2023-04-03T02:47:12;4.63;;;2.08;;
76023;SDS011;64719;52.124;6.226;2023-04-03T02:49:38;4.00;;;2.20;;
76023;SDS011;64719;52.124;6.226;2023-04-03T02:52:05;3.88;;;2.08;;
76023;SDS011;64719;52.124;6.226;2023-04-03T02:54:31;5.95;;;2.30;;
76023;SDS011;64719;52.124;6.226;2023-04-03T02:56:57;5.70;;;1.90;;
76023;SDS011;64719;52.124;6.226;2023-04-03T02:59:25;4.50;;;1.98;;
76023;SDS011;64719;52.124;6.226;2023-04-03T03:01:52;3.63;;;2.17;;
76023;SDS011;64719;52.124;6.226;2023-04-03T03:04:20;4.10;;;1.77;;
76023;SDS011;64719;52.124;6.226;2023-04-03T03:06:46;5.40;;;2.47;;
76023;SDS011;64719;52.124;6.226;2023-04-03T03:09:13;3.65;;;2.05;;
76023;SDS011;64719;52.124;6.226;2023-04-03T03:11:40;4.55;;;2.58;;
76023;SDS011;64719;52.124;6.226;2023-04-03T03:14:07;6.38;;;2.33;;
76023;SDS011;64719;52.124;6.226;2023-04-03T03:16:35;5.93;;;2.20;;
76023;SDS011;64719;52.124;6.226;2023-04-03T03:19:01;6.75;;;2.38;;
76023;SDS011;64719;52.124;6.226;2023-04-03T03:21:28;6.65;;;2.13;;
76023;SDS011;64719;52.124;6.226;2023-04-03T03:23:55;5.07;;;2.03;;
76023;SDS011;64719;52.124;6.226;2023-04-03T03:26:21;6.38;;;2.40;;
76023;SDS011;64719;52.124;6.226;2023-04-03T03:28:48;6.25;;;2.40;;
76023;SDS011;64719;52.124;6.226;2023-04-03T03:31:15;6.53;;;1.88;;
76023;SDS011;64719;52.124;6.226;2023-04-03T03:33:43;3.33;;;2.20;;
76023;SDS011;64719;52.124;6.226;2023-04-03T03:36:09;7.00;;;2.33;;
76023;SDS011;64719;52.124;6.226;2023-04-03T03:38:36;7.07;;;2.53;;
76023;SDS011;64719;52.124;6.226;2023-04-03T03:41:03;7.10;;;2.72;;
76023;SDS011;64719;52.124;6.226;2023-04-03T03:43:29;4.25;;;2.20;;
76023;SDS011;64719;52.124;6.226;2023-04-03T03:45:56;5.95;;;2.65;;
76023;SDS011;64719;52.124;6.226;2023-04-03T03:48:22;5.93;;;2.30;;
76023;SDS011;64719;52.124;6.226;2023-04-03T03:50:51;7.40;;;2.10;;
76023;SDS011;64719;52.124;6.226;2023-04-03T03:53:17;6.85;;;2.47;;
76023;SDS011;64719;52.124;6.226;2023-04-03T03:55:44;3.75;;;1.70;;
76023;SDS011;64719;52.124;6.226;2023-04-03T03:58:10;7.60;;;2.55;;
76023;SDS011;64719;52.124;6.226;2023-04-03T04:00:37;9.55;;;2.17;;
76023;SDS011;64719;52.124;6.226;2023-04-03T04:03:03;5.53;;;1.98;;
76023;SDS011;64719;52.124;6.226;2023-04-03T04:05:30;4.70;;;2.08;;
76023;SDS011;64719;52.124;6.226;2023-04-03T04:07:58;6.05;;;2.33;;
76023;SDS011;64719;52.124;6.226;2023-04-03T04:10:24;5.22;;;2.17;;
76023;SDS011;64719;52.124;6.226;2023-04-03T04:12:51;7.65;;;2.30;;
76023;SDS011;64719;52.124;6.226;2023-04-03T04:15:17;6.95;;;2.38;;
76023;SDS011;64719;52.124;6.226;2023-04-03T04:17:46;6.55;;;2.20;;
76023;SDS011;64719;52.124;6.226;2023-04-03T04:20:13;5.10;;;2.20;;
76023;SDS011;64719;52.124;6.226;2023-04-03T04:22:40;4.25;;;2.10;;
76023;SDS011;64719;52.124;6.226;2023-04-03T04:25:08;5.53;;;2.20;;
76023;SDS011;64719;52.124;6.226;2023-04-03T04:27:34;5.47;;;2.15;;
76023;SDS011;64719;52.124;6.226;2023-04-03T04:30:02;5.72;;;2.10;;
76023;SDS011;64719;52.124;6.226;2023-04-03T04:32:29;5.30;;;2.83;;
76023;SDS011;64719;52.124;6.226;2023-04-03T04:34:55;3.67;;;2.40;;
76023;SDS011;64719;52.124;6.226;2023-04-03T04:37:22;6.43;;;2.10;;
76023;SDS011;64719;52.124;6.226;2023-04-03T04:39:49;7.50;;;2.65;;
76023;SDS011;64719;52.124;6.226;2023-04-03T04:42:16;4.40;;;2.22;;
76023;SDS011;64719;52.124;6.226;2023-04-03T04:44:43;4.50;;;2.30;;
76023;SDS011;64719;52.124;6.226;2023-04-03T04:47:10;8.10;;;2.28;;
76023;SDS011;64719;52.124;6.226;2023-04-03T04:49:37;5.70;;;2.30;;
76023;SDS011;64719;52.124;6.226;2023-04-03T04:52:03;8.88;;;3.10;;
76023;SDS011;64719;52.124;6.226;2023-04-03T04:54:30;6.72;;;2.65;;
76023;SDS011;64719;52.124;6.226;2023-04-03T04:56:57;4.80;;;2.63;;
76023;SDS011;64719;52.124;6.226;2023-04-03T04:59:24;5.38;;;2.47;;
76023;SDS011;64719;52.124;6.226;2023-04-03T05:01:51;4.72;;;2.63;;
76023;SDS011;64719;52.124;6.226;2023-04-03T05:04:17;4.88;;;2.45;;
76023;SDS011;64719;52.124;6.226;2023-04-03T05:06:44;4.43;;;2.47;;
76023;SDS011;64719;52.124;6.226;2023-04-03T05:09:11;8.25;;;2.42;;
76023;SDS011;64719;52.124;6.226;2023-04-03T05:11:37;8.23;;;2.42;;
76023;SDS011;64719;52.124;6.226;2023-04-03T05:14:04;9.05;;;2.72;;
76023;SDS011;64719;52.124;6.226;2023-04-03T05:16:32;9.45;;;2.85;;
76023;SDS011;64719;52.124;6.226;2023-04-03T05:18:59;4.20;;;2.58;;
76023;SDS011;64719;52.124;6.226;2023-04-03T05:21:26;7.22;;;2.40;;
76023;SDS011;64719;52.124;6.226;2023-04-03T05:23:56;6.10;;;2.70;;
76023;SDS011;64719;52.124;6.226;2023-04-03T05:26:23;3.42;;;2.10;;
76023;SDS011;64719;52.124;6.226;2023-04-03T05:28:50;4.45;;;2.15;;
76023;SDS011;64719;52.124;6.226;2023-04-03T05:31:17;10.55;;;2.53;;
76023;SDS011;64719;52.124;6.226;2023-04-03T05:33:45;7.10;;;2.78;;
76023;SDS011;64719;52.124;6.226;2023-04-03T05:36:12;5.95;;;2.38;;
76023;SDS011;64719;52.124;6.226;2023-04-03T05:38:38;5.57;;;2.25;;
76023;SDS011;64719;52.124;6.226;2023-04-03T05:41:05;5.88;;;2.42;;
76023;SDS011;64719;52.124;6.226;2023-04-03T05:43:32;8.30;;;2.22;;
76023;SDS011;64719;52.124;6.226;2023-04-03T05:45:59;4.80;;;2.40;;
76023;SDS011;64719;52.124;6.226;2023-04-03T05:48:26;4.40;;;2.58;;
76023;SDS011;64719;52.124;6.226;2023-04-03T05:50:54;7.45;;;2.15;;
76023;SDS011;64719;52.124;6.226;2023-04-03T05:53:21;5.15;;;2.38;;
76023;SDS011;64719;52.124;6.226;2023-04-03T05:55:50;4.75;;;2.55;;
76023;SDS011;64719;52.124;6.226;2023-04-03T05:58:17;5.82;;;3.03;;
76023;SDS011;64719;52.124;6.226;2023-04-03T06:00:43;4.38;;;2.08;;
76023;SDS011;64719;52.124;6.226;2023-04-03T06:03:10;5.15;;;2.03;;
76023;SDS011;64719;52.124;6.226;2023-04-03T06:05:36;3.92;;;2.20;;
76023;SDS011;64719;52.124;6.226;2023-04-03T06:08:04;6.05;;;2.35;;
76023;SDS011;64719;52.124;6.226;2023-04-03T06:10:31;3.00;;;1.70;;
76023;SDS011;64719;52.124;6.226;2023-04-03T06:12:58;4.22;;;2.03;;
76023;SDS011;64719;52.124;6.226;2023-04-03T06:15:24;5.22;;;1.67;;
76023;SDS011;64719;52.124;6.226;2023-04-03T06:17:51;3.42;;;1.70;;
76023;SDS011;64719;52.124;6.226;2023-04-03T06:20:18;3.63;;;1.55;;
76023;SDS011;64719;52.124;6.226;2023-04-03T06:22:44;6.05;;;1.80;;
76023;SDS011;64719;52.124;6.226;2023-04-03T06:25:12;4.38;;;1.30;;
76023;SDS011;64719;52.124;6.226;2023-04-03T06:27:39;3.97;;;1.90;;
76023;SDS011;64719;52.124;6.226;2023-04-03T06:30:06;4.53;;;1.67;;
76023;SDS011;64719;52.124;6.226;2023-04-03T06:32:33;3.35;;;1.33;;
76023;SDS011;64719;52.124;6.226;2023-04-03T06:35:00;4.75;;;1.50;;
76023;SDS011;64719;52.124;6.226;2023-04-03T06:37:26;3.60;;;1.38;;
76023;SDS011;64719;52.124;6.226;2023-04-03T06:39:53;3.08;;;1.35;;
76023;SDS011;64719;52.124;6.226;2023-04-03T06:42:22;4.10;;;1.45;;
76023;SDS011;64719;52.124;6.226;2023-04-03T06:44:48;5.68;;;1.30;;
76023;SDS011;64719;52.124;6.226;2023-04-03T06:47:15;5.30;;;1.65;;
76023;SDS011;64719;52.124;6.226;2023-04-03T06:49:43;4.70;;;1.60;;
76023;SDS011;64719;52.124;6.226;2023-04-03T06:52:10;3.42;;;1.50;;
76023;SDS011;64719;52.124;6.226;2023-04-03T06:54:38;3.35;;;1.42;;
76023;SDS011;64719;52.124;6.226;2023-04-03T06:57:05;4.43;;;1.30;;
76023;SDS011;64719;52.124;6.226;2023-04-03T06:59:33;4.03;;;1.63;;
76023;SDS011;64719;52.124;6.226;2023-04-03T07:02:01;5.55;;;1.45;;
76023;SDS011;64719;52.124;6.226;2023-04-03T07:04:28;4.25;;;1.75;;
76023;SDS011;64719;52.124;6.226;2023-04-03T07:06:54;4.40;;;1.58;;
76023;SDS011;64719;52.124;6.226;2023-04-03T07:09:21;4.05;;;1.80;;
76023;SDS011;64719;52.124;6.226;2023-04-03T07:11:47;4.78;;;1.60;;
76023;SDS011;64719;52.124;6.226;2023-04-03T07:14:14;4.38;;;1.55;;
76023;SDS011;64719;52.124;6.226;2023-04-03T07:16:42;5.20;;;1.70;;
76023;SDS011;64719;52.124;6.226;2023-04-03T07:21:35;2.70;;;1.33;;
76023;SDS011;64719;52.124;6.226;2023-04-03T07:24:02;2.78;;;1.55;;
76023;SDS011;64719;52.124;6.226;2023-04-03T07:26:28;3.08;;;1.38;;
76023;SDS011;64719;52.124;6.226;2023-04-03T07:28:55;3.55;;;1.40;;
76023;SDS011;64719;52.124;6.226;2023-04-03T07:31:22;4.90;;;1.55;;
76023;SDS011;64719;52.124;6.226;2023-04-03T07:33:49;3.50;;;1.52;;
76023;SDS011;64719;52.124;6.226;2023-04-03T07:36:17;4.05;;;1.40;;
76023;SDS011;64719;52.124;6.226;2023-04-03T07:38:45;3.85;;;1.67;;
76023;SDS011;64719;52.124;6.226;2023-04-03T07:41:12;3.33;;;1.60;;
76023;SDS011;64719;52.124;6.226;2023-04-03T07:43:42;3.67;;;1.75;;
76023;SDS011;64719;52.124;6.226;2023-04-03T07:46:10;3.15;;;1.58;;
76023;SDS011;64719;52.124;6.226;2023-04-03T07:48:37;2.58;;;1.23;;
76023;SDS011;64719;52.124;6.226;2023-04-03T07:51:05;2.42;;;1.20;;
76023;SDS011;64719;52.124;6.226;2023-04-03T07:53:32;3.38;;;1.27;;
76023;SDS011;64719;52.124;6.226;2023-04-03T07:55:58;3.63;;;1.45;;
76023;SDS011;64719;52.124;6.226;2023-04-03T07:58:27;2.33;;;1.10;;
76023;SDS011;64719;52.124;6.226;2023-04-03T08:00:54;2.78;;;1.10;;
76023;SDS011;64719;52.124;6.226;2023-04-03T08:03:21;3.95;;;1.30;;
76023;SDS011;64719;52.124;6.226;2023-04-03T08:05:48;2.92;;;0.90;;
76023;SDS011;64719;52.124;6.226;2023-04-03T08:08:17;3.25;;;1.17;;
76023;SDS011;64719;52.124;6.226;2023-04-03T08:10:47;2.65;;;1.25;;
76023;SDS011;64719;52.124;6.226;2023-04-03T08:13:15;3.47;;;1.20;;
76023;SDS011;64719;52.124;6.226;2023-04-03T08:15:42;2.83;;;1.05;;
76023;SDS011;64719;52.124;6.226;2023-04-03T08:18:08;3.15;;;1.33;;
76023;SDS011;64719;52.124;6.226;2023-04-03T08:20:35;2.92;;;1.13;;
76023;SDS011;64719;52.124;6.226;2023-04-03T08:23:03;2.17;;;1.13;;
76023;SDS011;64719;52.124;6.226;2023-04-03T08:25:31;2.90;;;1.30;;
76023;SDS011;64719;52.124;6.226;2023-04-03T08:27:57;2.85;;;1.30;;
76023;SDS011;64719;52.124;6.226;2023-04-03T08:30:24;1.65;;;0.90;;
76023;SDS011;64719;52.124;6.226;2023-04-03T08:32:51;3.10;;;0.90;;
76023;SDS011;64719;52.124;6.226;2023-04-03T08:35:18;3.30;;;1.13;;
76023;SDS011;64719;52.124;6.226;2023-04-03T08:37:45;2.08;;;1.10;;
76023;SDS011;64719;52.124;6.226;2023-04-03T08:40:13;2.13;;;1.10;;
76023;SDS011;64719;52.124;6.226;2023-04-03T08:42:44;1.98;;;0.88;;
76023;SDS011;64719;52.124;6.226;2023-04-03T08:45:21;1.50;;;0.70;;
76023;SDS011;64719;52.124;6.226;2023-04-03T08:47:55;2.28;;;0.77;;
76023;SDS011;64719;52.124;6.226;2023-04-03T08:50:28;2.63;;;0.90;;
76023;SDS011;64719;52.124;6.226;2023-04-03T08:52:59;1.88;;;0.73;;
76023;SDS011;64719;52.124;6.226;2023-04-03T08:55:31;2.75;;;0.98;;
76023;SDS011;64719;52.124;6.226;2023-04-03T08:58:02;1.95;;;0.70;;
76023;SDS011;64719;52.124;6.226;2023-04-03T09:00:32;2.35;;;0.70;;
76023;SDS011;64719;52.124;6.226;2023-04-03T09:03:10;3.30;;;0.85;;
76023;SDS011;64719;52.124;6.226;2023-04-03T09:05:39;2.47;;;0.80;;
76023;SDS011;64719;52.124;6.226;2023-04-03T09:08:12;1.85;;;0.80;;
76023;SDS011;64719;52.124;6.226;2023-04-03T09:10:47;2.83;;;0.80;;
76023;SDS011;64719;52.124;6.226;2023-04-03T09:13:20;2.45;;;1.00;;
76023;SDS011;64719;52.124;6.226;2023-04-03T09:15:53;1.05;;;0.60;;
76023;SDS011;64719;52.124;6.226;2023-04-03T09:18:21;2.00;;;0.80;;
76023;SDS011;64719;52.124;6.226;2023-04-03T09:20:54;1.08;;;0.63;;
76023;SDS011;64719;52.124;6.226;2023-04-03T09:23:28;2.33;;;0.85;;
76023;SDS011;64719;52.124;6.226;2023-04-03T09:26:01;1.42;;;0.80;;
76023;SDS011;64719;52.124;6.226;2023-04-03T09:28:32;2.28;;;0.98;;
76023;SDS011;64719;52.124;6.226;2023-04-03T09:31:05;1.50;;;0.80;;
76023;SDS011;64719;52.124;6.226;2023-04-03T09:33:44;2.50;;;0.75;;
76023;SDS011;64719;52.124;6.226;2023-04-03T09:36:12;4.05;;;2.08;;
76023;SDS011;64719;52.124;6.226;2023-04-03T09:38:39;4.57;;;2.50;;
76023;SDS011;64719;52.124;6.226;2023-04-03T09:41:06;5.25;;;2.85;;
76023;SDS011;64719;52.124;6.226;2023-04-03T09:43:40;2.17;;;0.73;;
76023;SDS011;64719;52.124;6.226;2023-04-03T09:49:03;2.55;;;1.00;;
76023;SDS011;64719;52.124;6.226;2023-04-03T09:51:31;1.60;;;0.75;;
76023;SDS011;64719;52.124;6.226;2023-04-03T09:53:58;2.10;;;0.90;;
76023;SDS011;64719;52.124;6.226;2023-04-03T09:56:25;7.40;;;3.97;;
76023;SDS011;64719;52.124;6.226;2023-04-03T09:59:07;14.73;;;7.43;;
76023;SDS011;64719;52.124;6.226;2023-04-03T10:01:42;3.65;;;1.65;;
76023;SDS011;64719;52.124;6.226;2023-04-03T10:04:21;5.20;;;2.40;;
76023;SDS011;64719;52.124;6.226;2023-04-03T10:06:50;2.50;;;0.85;;
76023;SDS011;64719;52.124;6.226;2023-04-03T10:09:19;1.92;;;1.30;;
76023;SDS011;64719;52.124;6.226;2023-04-03T10:12:01;1.95;;;1.48;;
76023;SDS011;64719;52.124;6.226;2023-04-03T10:14:32;1.95;;;1.42;;
76023;SDS011;64719;52.124;6.226;2023-04-03T10:17:12;2.83;;;0.77;;
76023;SDS011;64719;52.124;6.226;2023-04-03T10:19:45;3.47;;;0.98;;
76023;SDS011;64719;52.124;6.226;2023-04-03T10:22:18;1.73;;;0.75;;
76023;SDS011;64719;52.124;6.226;2023-04-03T10:24:51;1.90;;;0.93;;
76023;SDS011;64719;52.124;6.226;2023-04-03T10:27:22;1.80;;;0.80;;
76023;SDS011;64719;52.124;6.226;2023-04-03T10:30:01;3.28;;;0.88;;
76023;SDS011;64719;52.124;6.226;2023-04-03T10:32:40;2.47;;;0.90;;
76023;SDS011;64719;52.124;6.226;2023-04-03T10:35:16;1.98;;;1.10;;
76023;SDS011;64719;52.124;6.226;2023-04-03T10:37:54;1.55;;;0.60;;
76023;SDS011;64719;52.124;6.226;2023-04-03T10:40:29;1.60;;;0.90;;
76023;SDS011;64719;52.124;6.226;2023-04-03T10:43:02;1.42;;;0.80;;
76023;SDS011;64719;52.124;6.226;2023-04-03T10:45:42;2.55;;;0.90;;
76023;SDS011;64719;52.124;6.226;2023-04-03T10:48:23;1.27;;;0.70;;
76023;SDS011;64719;52.124;6.226;2023-04-03T10:50:58;1.65;;;0.80;;
76023;SDS011;64719;52.124;6.226;2023-04-03T10:53:34;1.98;;;0.85;;
76023;SDS011;64719;52.124;6.226;2023-04-03T10:56:07;1.30;;;0.75;;
76023;SDS011;64719;52.124;6.226;2023-04-03T10:58:43;1.70;;;0.80;;
76023;SDS011;64719;52.124;6.226;2023-04-03T11:01:14;1.85;;;0.80;;
76023;SDS011;64719;52.124;6.226;2023-04-03T11:03:46;2.33;;;1.00;;
76023;SDS011;64719;52.124;6.226;2023-04-03T11:06:16;1.67;;;0.80;;
76023;SDS011;64719;52.124;6.226;2023-04-03T11:08:46;1.58;;;0.93;;
76023;SDS011;64719;52.124;6.226;2023-04-03T11:11:20;1.73;;;0.80;;
76023;SDS011;64719;52.124;6.226;2023-04-03T11:13:52;1.65;;;0.90;;
76023;SDS011;64719;52.124;6.226;2023-04-03T11:16:26;1.92;;;0.90;;
76023;SDS011;64719;52.124;6.226;2023-04-03T11:18:56;1.65;;;0.88;;
76023;SDS011;64719;52.124;6.226;2023-04-03T11:21:27;2.55;;;0.98;;
76023;SDS011;64719;52.124;6.226;2023-04-03T11:23:57;2.80;;;1.10;;
76023;SDS011;64719;52.124;6.226;2023-04-03T11:26:28;2.35;;;0.90;;
76023;SDS011;64719;52.124;6.226;2023-04-03T11:28:59;2.60;;;1.08;;
76023;SDS011;64719;52.124;6.226;2023-04-03T11:31:33;1.73;;;1.00;;
76023;SDS011;64719;52.124;6.226;2023-04-03T11:34:13;3.33;;;0.90;;
76023;SDS011;64719;52.124;6.226;2023-04-03T11:36:51;1.80;;;0.73;;
76023;SDS011;64719;52.124;6.226;2023-04-03T11:39:22;2.70;;;1.00;;
76023;SDS011;64719;52.124;6.226;2023-04-03T11:41:51;2.20;;;0.82;;
76023;SDS011;64719;52.124;6.226;2023-04-03T11:44:27;2.35;;;0.90;;
76023;SDS011;64719;52.124;6.226;2023-04-03T11:46:59;2.72;;;1.10;;
76023;SDS011;64719;52.124;6.226;2023-04-03T11:58:15;2.70;;;1.30;;
76023;SDS011;64719;52.124;6.226;2023-04-03T12:00:47;2.35;;;0.98;;
76023;SDS011;64719;52.124;6.226;2023-04-03T12:09:34;2.05;;;1.00;;
76023;SDS011;64719;52.124;6.226;2023-04-03T12:12:28;2.97;;;1.10;;
76023;SDS011;64719;52.124;6.226;2023-04-03T12:15:23;2.47;;;1.00;;
76023;SDS011;64719;52.124;6.226;2023-04-03T12:17:52;2.85;;;1.10;;
76023;SDS011;64719;52.124;6.226;2023-04-03T12:26:32;2.15;;;0.90;;
76023;SDS011;64719;52.124;6.226;2023-04-03T12:29:02;1.90;;;0.95;;
76023;SDS011;64719;52.124;6.226;2023-04-03T12:31:42;2.45;;;1.02;;
76023;SDS011;64719;52.124;6.226;2023-04-03T12:34:35;2.83;;;0.98;;
76023;SDS011;64719;52.124;6.226;2023-04-03T12:37:19;1.65;;;0.88;;
76023;SDS011;64719;52.124;6.226;2023-04-03T12:40:01;2.38;;;0.93;;
76023;SDS011;64719;52.124;6.226;2023-04-03T12:42:55;2.92;;;0.98;;
76023;SDS011;64719;52.124;6.226;2023-04-03T12:45:38;2.22;;;1.10;;
76023;SDS011;64719;52.124;6.226;2023-04-03T12:48:12;3.30;;;0.90;;
76023;SDS011;64719;52.124;6.226;2023-04-03T12:50:41;3.15;;;1.08;;
76023;SDS011;64719;52.124;6.226;2023-04-03T12:53:12;1.75;;;1.10;;
76023;SDS011;64719;52.124;6.226;2023-04-03T12:55:42;1.52;;;0.95;;
76023;SDS011;64719;52.124;6.226;2023-04-03T12:58:21;5.85;;;1.10;;
76023;SDS011;64719;52.124;6.226;2023-04-03T13:01:00;3.47;;;1.10;;
76023;SDS011;64719;52.124;6.226;2023-04-03T13:03:27;3.63;;;1.17;;
76023;SDS011;64719;52.124;6.226;2023-04-03T13:05:55;2.90;;;1.20;;
76023;SDS011;64719;52.124;6.226;2023-04-03T13:08:25;2.83;;;1.10;;
76023;SDS011;64719;52.124;6.226;2023-04-03T13:10:54;3.53;;;1.25;;
76023;SDS011;64719;52.124;6.226;2023-04-03T13:13:25;2.38;;;1.20;;
76023;SDS011;64719;52.124;6.226;2023-04-03T13:15:52;2.58;;;1.10;;
76023;SDS011;64719;52.124;6.226;2023-04-03T13:18:27;2.45;;;0.90;;
76023;SDS011;64719;52.124;6.226;2023-04-03T13:20:57;2.75;;;1.20;;
76023;SDS011;64719;52.124;6.226;2023-04-03T13:23:27;3.00;;;1.30;;
76023;SDS011;64719;52.124;6.226;2023-04-03T13:25:56;4.03;;;1.25;;
76023;SDS011;64719;52.124;6.226;2023-04-03T13:28:29;2.63;;;1.35;;
76023;SDS011;64719;52.124;6.226;2023-04-03T13:30:59;3.55;;;1.20;;
76023;SDS011;64719;52.124;6.226;2023-04-03T13:33:29;2.63;;;1.10;;
76023;SDS011;64719;52.124;6.226;2023-04-03T13:36:00;1.90;;;1.02;;
76023;SDS011;64719;52.124;6.226;2023-04-03T13:38:29;3.80;;;1.52;;
76023;SDS011;64719;52.124;6.226;2023-04-03T13:40:59;2.28;;;1.00;;
76023;SDS011;64719;52.124;6.226;2023-04-03T13:43:30;3.05;;;1.20;;
76023;SDS011;64719;52.124;6.226;2023-04-03T13:46:00;3.33;;;1.40;;
76023;SDS011;64719;52.124;6.226;2023-04-03T13:48:38;3.35;;;1.25;;
76023;SDS011;64719;52.124;6.226;2023-04-03T13:51:12;4.28;;;1.50;;
76023;SDS011;64719;52.124;6.226;2023-04-03T13:53:45;3.60;;;1.20;;
76023;SDS011;64719;52.124;6.226;2023-04-03T13:56:16;3.08;;;1.20;;
76023;SDS011;64719;52.124;6.226;2023-04-03T13:58:56;4.45;;;1.30;;
76023;SDS011;64719;52.124;6.226;2023-04-03T14:01:25;2.42;;;1.25;;
76023;SDS011;64719;52.124;6.226;2023-04-03T14:04:01;2.85;;;1.33;;
76023;SDS011;64719;52.124;6.226;2023-04-03T14:06:36;4.30;;;1.42;;
76023;SDS011;64719;52.124;6.226;2023-04-03T14:09:03;4.45;;;1.50;;
76023;SDS011;64719;52.124;6.226;2023-04-03T14:11:29;3.80;;;1.85;;
76023;SDS011;64719;52.124;6.226;2023-04-03T14:14:00;3.25;;;1.42;;
76023;SDS011;64719;52.124;6.226;2023-04-03T14:16:31;2.78;;;1.50;;
76023;SDS011;64719;52.124;6.226;2023-04-03T14:19:01;3.80;;;1.38;;
76023;SDS011;64719;52.124;6.226;2023-04-03T14:21:28;3.45;;;1.38;;
76023;SDS011;64719;52.124;6.226;2023-04-03T14:23:55;4.18;;;1.60;;
76023;SDS011;64719;52.124;6.226;2023-04-03T14:26:22;4.03;;;1.42;;
76023;SDS011;64719;52.124;6.226;2023-04-03T14:28:52;4.20;;;1.35;;
76023;SDS011;64719;52.124;6.226;2023-04-03T14:31:21;2.90;;;1.20;;
76023;SDS011;64719;52.124;6.226;2023-04-03T14:33:49;3.42;;;1.30;;
76023;SDS011;64719;52.124;6.226;2023-04-03T14:36:16;2.92;;;1.08;;
76023;SDS011;64719;52.124;6.226;2023-04-03T14:38:46;2.88;;;1.42;;
76023;SDS011;64719;52.124;6.226;2023-04-03T14:41:14;1.77;;;0.90;;
76023;SDS011;64719;52.124;6.226;2023-04-03T14:43:44;3.80;;;1.35;;
76023;SDS011;64719;52.124;6.226;2023-04-03T14:46:13;3.30;;;1.30;;
76023;SDS011;64719;52.124;6.226;2023-04-03T14:48:41;4.00;;;0.90;;
76023;SDS011;64719;52.124;6.226;2023-04-03T14:51:09;5.10;;;1.30;;
76023;SDS011;64719;52.124;6.226;2023-04-03T14:53:37;4.05;;;1.10;;
76023;SDS011;64719;52.124;6.226;2023-04-03T14:56:05;2.35;;;1.05;;
76023;SDS011;64719;52.124;6.226;2023-04-03T14:58:38;2.40;;;1.00;;
76023;SDS011;64719;52.124;6.226;2023-04-03T15:01:04;3.65;;;1.15;;
76023;SDS011;64719;52.124;6.226;2023-04-03T15:03:31;3.55;;;1.40;;
76023;SDS011;64719;52.124;6.226;2023-04-03T15:05:59;3.00;;;1.02;;
76023;SDS011;64719;52.124;6.226;2023-04-03T15:08:26;2.60;;;1.10;;
76023;SDS011;64719;52.124;6.226;2023-04-03T15:10:55;3.47;;;1.20;;
76023;SDS011;64719;52.124;6.226;2023-04-03T15:13:21;1.98;;;1.10;;
76023;SDS011;64719;52.124;6.226;2023-04-03T15:15:48;2.72;;;0.95;;
76023;SDS011;64719;52.124;6.226;2023-04-03T15:18:17;3.13;;;1.40;;
76023;SDS011;64719;52.124;6.226;2023-04-03T15:20:45;3.08;;;1.30;;
76023;SDS011;64719;52.124;6.226;2023-04-03T15:23:14;3.45;;;1.08;;
76023;SDS011;64719;52.124;6.226;2023-04-03T15:25:42;3.00;;;1.30;;
76023;SDS011;64719;52.124;6.226;2023-04-03T15:28:10;3.22;;;1.02;;